createdAt,value
2023-02-12T00:00:18.723Z,103116.41
2023-02-12T00:02:46.318Z,103112.84
2023-02-12T00:05:16.959Z,103110.25
2023-02-12T00:07:44.572Z,103111.09
2023-02-12T00:10:14.182Z,103120.00
2023-02-12T00:12:41.760Z,103113.75
2023-02-12T00:15:10.284Z,103109.41
2023-02-12T00:17:38.004Z,103103.25
2023-02-12T00:20:07.098Z,103108.56
2023-02-12T00:22:36.141Z,103108.56
2023-02-12T00:25:03.940Z,103111.22
2023-02-12T00:27:33.907Z,103104.19
2023-02-12T00:30:01.530Z,103104.19
2023-02-12T00:32:29.227Z,103099.03
2023-02-12T00:34:57.573Z,103097.31
2023-02-12T00:37:25.351Z,103101.72
2023-02-12T00:39:56.633Z,103103.53
2023-02-12T00:42:24.280Z,103110.63
2023-02-12T00:44:52.491Z,103110.63
2023-02-12T00:47:20.084Z,103113.25
2023-02-12T00:49:51.285Z,103112.41
2023-02-12T00:52:21.182Z,103117.72
2023-02-12T00:54:51.007Z,103118.56
2023-02-12T00:57:20.451Z,103121.22
2023-02-12T00:59:50.483Z,103119.56
2023-02-12T01:02:18.917Z,103112.53
2023-02-12T01:04:47.651Z,103116.09
2023-02-12T01:07:16.492Z,103117.03
2023-02-12T01:09:44.166Z,103119.63
2023-02-12T01:12:12.513Z,103117.88
2023-02-12T01:14:41.513Z,103120.53
2023-02-12T01:17:09.215Z,103122.31
2023-02-12T01:19:36.825Z,103123.25
2023-02-12T01:22:05.579Z,103130.34
2023-02-12T01:24:36.029Z,103120.69
2023-02-12T01:27:03.729Z,103126.91
2023-02-12T01:29:33.632Z,103118.97
2023-02-12T01:32:03.562Z,103126.06
2023-02-12T01:34:31.225Z,103120.75
2023-02-12T01:36:59.018Z,103116.34
2023-02-12T01:39:26.649Z,103112.84
2023-02-12T01:41:54.303Z,103119.06
2023-02-12T01:44:24.188Z,103111.19
2023-02-12T01:46:56.729Z,103116.47
2023-02-12T01:49:31.544Z,103114.84
2023-02-12T01:52:03.872Z,103112.19
2023-02-12T01:54:32.352Z,103112.22
2023-02-12T01:57:01.559Z,103108.72
2023-02-12T01:59:30.719Z,103107.06
2023-02-12T02:01:59.011Z,103105.34
2023-02-12T02:04:31.691Z,103112.41
2023-02-12T02:07:03.002Z,103110.66
2023-02-12T02:09:34.487Z,103112.53
2023-02-12T02:12:23.498Z,103110.88
2023-02-12T02:14:55.679Z,103103.03
2023-02-12T02:17:35.291Z,103111.06
2023-02-12T02:20:51.570Z,103103.16
2023-02-12T02:23:51.700Z,103102.34
2023-02-12T02:26:46.496Z,103101.56
2023-02-12T02:29:30.565Z,103101.63
2023-02-12T02:32:07.616Z,103099.94
2023-02-12T02:34:41.406Z,103096.44
2023-02-12T02:37:19.326Z,103094.78
2023-02-12T02:39:53.406Z,103093.09
2023-02-12T02:42:29.615Z,103101.97
2023-02-12T02:45:03.154Z,103100.25
2023-02-12T02:47:39.503Z,103097.66
2023-02-12T02:50:16.501Z,103102.22
2023-02-12T02:52:51.183Z,103091.69
2023-02-12T02:58:18.493Z,103091.78
2023-02-12T03:00:52.880Z,103091.84
2023-02-12T03:03:29.672Z,103090.19
2023-02-12T03:06:03.687Z,103095.53
2023-02-12T03:08:36.635Z,103092.09
2023-02-12T03:11:09.569Z,103092.16
2023-02-12T03:13:42.229Z,103090.41
2023-02-12T03:16:16.462Z,103089.59
2023-02-12T03:18:51.333Z,103087.88
2023-02-12T03:21:23.443Z,103087.09
2023-02-12T03:24:23.417Z,103092.41
2023-02-12T03:26:57.579Z,103088.97
2023-02-12T03:29:30.595Z,103093.47
2023-02-12T03:32:39.171Z,103094.41
2023-02-12T03:35:13.871Z,103109.53
2023-02-12T03:37:46.664Z,103097.22
2023-02-12T03:40:21.479Z,103108.72
2023-02-12T03:42:58.851Z,103106.09
2023-02-12T03:45:42.540Z,103106.09
2023-02-12T03:48:15.337Z,103104.31
2023-02-12T03:50:49.916Z,103106.09
2023-02-12T03:53:19.482Z,103110.47
2023-02-12T03:55:54.227Z,103113.13
2023-02-12T03:58:27.557Z,103114.91
2023-02-12T04:00:58.515Z,103118.41
2023-02-12T04:03:27.336Z,103121.97
2023-02-12T04:05:58.487Z,103120.19
2023-02-12T04:08:28.049Z,103118.44
2023-02-12T04:11:06.387Z,103124.63
2023-02-12T04:13:43.575Z,103121.97
2023-02-12T04:16:20.930Z,103114.03
2023-02-12T04:18:50.390Z,103119.31
2023-02-12T04:21:38.091Z,103123.69
2023-02-12T04:24:16.577Z,103123.69
2023-02-12T04:26:53.670Z,103128.13
2023-02-12T04:29:31.316Z,103129.84
2023-02-12T04:32:07.812Z,103134.28
2023-02-12T04:34:40.568Z,103131.63
2023-02-12T04:37:17.641Z,103130.78
2023-02-12T04:39:46.676Z,103134.28
2023-02-12T04:42:14.378Z,103136.06
2023-02-12T04:44:44.589Z,103138.72
2023-02-12T04:47:13.602Z,103137.78
2023-02-12T04:49:43.040Z,103142.22
2023-02-12T04:52:12.076Z,103147.53
2023-02-12T04:54:39.725Z,103148.44
2023-02-12T04:57:07.321Z,103148.44
2023-02-12T04:59:35.598Z,103148.44
2023-02-12T05:02:03.372Z,103148.44
2023-02-12T05:04:31.546Z,103153.78
2023-02-12T05:06:59.102Z,103153.78
2023-02-12T05:09:28.487Z,103158.22
2023-02-12T05:11:56.504Z,103147.63
2023-02-12T05:14:25.455Z,103159.13
2023-02-12T05:16:53.108Z,103153.84
2023-02-12T05:19:21.529Z,103156.56
2023-02-12T05:21:50.986Z,103160.06
2023-02-12T05:24:19.161Z,103159.19
2023-02-12T05:26:49.422Z,103161.84
2023-02-12T05:29:22.205Z,103162.72
2023-02-12T05:31:50.677Z,103160.97
2023-02-12T05:34:18.405Z,103163.63
2023-02-12T05:36:46.570Z,103167.19
2023-02-12T05:39:14.657Z,103163.63
2023-02-12T05:41:43.915Z,103162.78
2023-02-12T05:44:15.077Z,103161.91
2023-02-12T05:46:47.662Z,103168.06
2023-02-12T05:49:19.517Z,103161.91
2023-02-12T05:51:47.986Z,103158.38
2023-02-12T05:54:15.588Z,103162.81
2023-02-12T05:56:45.642Z,103159.25
2023-02-12T05:59:18.596Z,103161.00
2023-02-12T06:01:48.247Z,103159.25
2023-02-12T06:04:19.656Z,103155.72
2023-02-12T06:06:47.836Z,103169.84
2023-02-12T06:09:15.692Z,103156.63
2023-02-12T06:11:43.990Z,103159.25
2023-02-12T06:14:16.417Z,103157.50
2023-02-12T06:16:46.621Z,103154.84
2023-02-12T06:19:14.888Z,103160.16
2023-02-12T06:21:43.107Z,103164.59
2023-02-12T06:24:13.500Z,103166.38
2023-02-12T06:26:46.501Z,103165.44
2023-02-12T06:29:15.500Z,103170.75
2023-02-12T06:31:44.678Z,103169.03
2023-02-12T06:34:17.896Z,103179.59
2023-02-12T06:36:48.203Z,103176.97
2023-02-12T06:39:17.856Z,103174.31
2023-02-12T06:41:45.538Z,103177.81
2023-02-12T06:44:16.544Z,103184.91
2023-02-12T06:46:44.232Z,103183.13
2023-02-12T06:49:13.477Z,103182.25
2023-02-12T06:51:41.485Z,103191.13
2023-02-12T06:54:16.185Z,103191.13
2023-02-12T06:56:44.628Z,103188.47
2023-02-12T06:59:16.556Z,103195.50
2023-02-12T07:01:44.525Z,103192.84
2023-02-12T07:04:12.717Z,103196.34
2023-02-12T07:06:42.562Z,103196.34
2023-02-12T07:09:10.246Z,103201.66
2023-02-12T07:11:38.783Z,103206.09
2023-02-12T07:14:06.976Z,103208.72
2023-02-12T07:16:36.656Z,103218.41
2023-02-12T07:19:04.537Z,103218.41
2023-02-12T07:21:57.872Z,103214.88
2023-02-12T07:24:27.072Z,103215.75
2023-02-12T07:26:56.565Z,103216.63
2023-02-12T07:29:25.017Z,103215.72
2023-02-12T07:31:54.498Z,103214.78
2023-02-12T07:34:22.593Z,103218.31
2023-02-12T07:36:50.518Z,103226.25
2023-02-12T07:39:18.634Z,103235.84
2023-02-12T07:41:46.255Z,103235.81
2023-02-12T07:44:14.631Z,103240.19
2023-02-12T07:46:46.279Z,103234.84
2023-02-12T07:49:19.506Z,103242.72
2023-02-12T07:51:51.933Z,103232.09
2023-02-12T07:54:44.410Z,103243.50
2023-02-12T07:57:12.624Z,103243.44
2023-02-12T07:59:40.298Z,103241.63
2023-02-12T08:02:09.611Z,103246.00
2023-02-12T08:07:34.515Z,103257.31
2023-02-12T08:10:02.118Z,103250.19
2023-02-12T08:12:30.497Z,103248.41
2023-02-12T08:14:58.626Z,103257.06
2023-02-12T08:17:26.548Z,103253.53
2023-02-12T08:19:55.592Z,103254.41
2023-02-12T08:22:25.004Z,103269.25
2023-02-12T08:24:52.613Z,103264.78
2023-02-12T08:27:46.635Z,103267.25
2023-02-12T08:30:18.358Z,103268.94
2023-02-12T08:32:50.076Z,103272.31
2023-02-12T08:35:19.432Z,103281.91
2023-02-12T08:37:49.432Z,103274.72
2023-02-12T08:40:18.615Z,103284.28
2023-02-12T08:42:46.506Z,103279.78
2023-02-12T08:45:14.072Z,103280.53
2023-02-12T08:47:41.763Z,103283.94
2023-02-12T08:50:10.603Z,103282.97
2023-02-12T08:52:43.946Z,103287.28
2023-02-12T08:55:11.712Z,103281.88
2023-02-12T08:57:40.045Z,103282.69
2023-02-12T09:00:09.598Z,103279.91
2023-02-12T09:02:37.171Z,103290.41
2023-02-12T09:05:05.502Z,103293.00
2023-02-12T09:07:33.500Z,103293.81
2023-02-12T09:10:02.510Z,103291.06
2023-02-12T09:12:32.492Z,103291.78
2023-02-12T09:15:01.028Z,103288.16
2023-02-12T09:17:29.333Z,103297.72
2023-02-12T09:19:57.588Z,103293.16
2023-02-12T09:22:25.290Z,103292.31
2023-02-12T09:24:54.830Z,103304.41
2023-02-12T09:27:23.811Z,103305.25
2023-02-12T09:29:52.125Z,103299.03
2023-02-12T09:32:20.503Z,103299.72
2023-02-12T09:34:49.517Z,103294.22
2023-02-12T09:37:17.952Z,103295.72
2023-02-12T09:39:51.147Z,103299.16
2023-02-12T09:42:35.500Z,103288.56
2023-02-12T09:45:13.503Z,103299.91
2023-02-12T09:47:47.914Z,103299.84
2023-02-12T09:50:44.516Z,103302.28
2023-02-12T09:53:17.598Z,103298.53
2023-02-12T09:55:46.526Z,103303.75
2023-02-12T09:58:19.591Z,103300.22
2023-02-12T10:00:47.433Z,103303.75
2023-02-12T10:03:18.310Z,103301.84
2023-02-12T10:05:51.732Z,103302.72
2023-02-12T10:08:38.589Z,103314.00
2023-02-12T10:11:29.572Z,103309.50
2023-02-12T10:14:16.602Z,103312.94
2023-02-12T10:17:00.510Z,103318.94
2023-02-12T10:19:34.124Z,103313.44
2023-02-12T10:22:17.407Z,103313.38
2023-02-12T10:25:06.586Z,103314.06
2023-02-12T10:27:40.858Z,103317.56
2023-02-12T10:30:26.509Z,103314.72
2023-02-12T10:33:02.575Z,103315.41
2023-02-12T10:35:33.979Z,103310.78
2023-02-12T10:38:08.724Z,103307.97
2023-02-12T10:40:39.217Z,103301.63
2023-02-12T10:43:14.514Z,103306.59
2023-02-12T10:45:45.232Z,103297.56
2023-02-12T10:48:20.743Z,103297.50
2023-02-12T10:51:29.924Z,103299.97
2023-02-12T10:53:58.517Z,103304.41
2023-02-12T10:56:28.029Z,103306.94
2023-02-12T10:58:59.276Z,103304.06
2023-02-12T11:01:31.817Z,103302.09
2023-02-12T11:04:00.931Z,103300.22
2023-02-12T11:06:32.301Z,103293.91
2023-02-12T11:09:00.801Z,103291.00
2023-02-12T11:11:31.028Z,103291.69
2023-02-12T11:17:26.537Z,103294.09
2023-02-12T11:20:05.239Z,103288.66
2023-02-12T11:22:35.527Z,103293.03
2023-02-12T11:28:17.606Z,103293.53
2023-02-12T11:30:54.605Z,103289.16
2023-02-12T11:33:29.291Z,103281.97
2023-02-12T11:36:01.060Z,103286.09
2023-02-12T11:38:33.194Z,103281.44
2023-02-12T11:41:07.759Z,103281.06
2023-02-12T11:43:39.454Z,103276.41
2023-02-12T11:46:09.222Z,103276.25
2023-02-12T11:48:47.307Z,103267.19
2023-02-12T11:51:45.475Z,103270.53
2023-02-12T11:54:20.929Z,103264.28
2023-02-12T11:56:49.040Z,103260.84
2023-02-12T11:59:33.224Z,103259.91
2023-02-12T12:02:06.522Z,103252.63
2023-02-12T12:04:37.595Z,103252.63
2023-02-12T12:07:16.524Z,103254.38
2023-02-12T12:09:48.435Z,103255.22
2023-02-12T12:12:22.684Z,103246.31
2023-02-12T12:15:10.816Z,103255.28
2023-02-12T12:18:04.155Z,103245.50
2023-02-12T12:20:37.752Z,103238.41
2023-02-12T12:23:11.855Z,103235.66
2023-02-12T12:25:46.083Z,103234.63
2023-02-12T12:28:31.640Z,103237.31
2023-02-12T12:31:06.542Z,103235.59
2023-02-12T12:33:44.107Z,103227.31
2023-02-12T12:36:39.237Z,103223.00
2023-02-12T12:39:19.608Z,103228.09
2023-02-12T12:42:14.588Z,103218.34
2023-02-12T12:45:02.596Z,103217.38
2023-02-12T12:47:41.206Z,103216.28
2023-02-12T12:50:28.609Z,103214.34
2023-02-12T12:53:16.966Z,103221.25
2023-02-12T12:56:08.526Z,103209.50
2023-02-12T12:58:47.925Z,103204.03
2023-02-12T13:01:47.352Z,103202.31
2023-02-12T13:04:40.540Z,103197.13
2023-02-12T13:07:19.743Z,103195.50
2023-02-12T13:10:03.900Z,103189.22
2023-02-12T13:12:46.610Z,103183.81
2023-02-12T13:15:23.550Z,103183.91
2023-02-12T13:18:02.618Z,103183.81
2023-02-12T13:20:42.948Z,103183.72
2023-02-12T13:23:16.245Z,103178.41
2023-02-12T13:25:58.664Z,103176.00
2023-02-12T13:28:35.753Z,103173.56
2023-02-12T13:31:30.101Z,103184.13
2023-02-12T13:33:59.539Z,103184.19
2023-02-12T13:36:27.335Z,103181.63
2023-02-12T13:38:59.620Z,103185.91
2023-02-12T13:41:33.215Z,103186.69
2023-02-12T13:44:13.167Z,103190.16
2023-02-12T13:46:50.693Z,103188.38
2023-02-12T13:49:27.161Z,103185.53
2023-02-12T13:52:01.153Z,103185.63
2023-02-12T13:54:41.740Z,103184.69
2023-02-12T13:57:16.198Z,103189.22
2023-02-12T13:59:51.047Z,103178.72
2023-02-12T14:02:53.276Z,103186.78
2023-02-12T14:05:34.597Z,103178.88
2023-02-12T14:08:05.891Z,103186.16
2023-02-12T14:10:37.269Z,103180.78
2023-02-12T14:13:20.604Z,103186.88
2023-02-12T14:15:51.711Z,103186.88
2023-02-12T14:18:34.123Z,103189.44
2023-02-12T14:21:41.154Z,103193.06
2023-02-12T14:24:51.492Z,103192.19
2023-02-12T14:27:31.841Z,103189.53
2023-02-12T14:30:26.738Z,103185.16
2023-02-12T14:33:12.436Z,103185.19
2023-02-12T14:35:42.583Z,103184.50
2023-02-12T14:38:47.556Z,103188.13
2023-02-12T14:41:37.314Z,103184.59
2023-02-12T14:44:45.671Z,103176.59
2023-02-12T14:47:30.852Z,103180.19
2023-02-12T14:50:03.900Z,103176.66
2023-02-12T14:52:40.620Z,103173.31
2023-02-12T14:55:21.095Z,103175.97
2023-02-12T14:57:51.270Z,103168.00
2023-02-12T15:00:26.844Z,103179.56
2023-02-12T15:02:59.811Z,103174.25
2023-02-12T15:05:31.543Z,103169.84
2023-02-12T15:08:03.475Z,103175.25
2023-02-12T15:10:39.553Z,103175.31
2023-02-12T15:13:16.962Z,103181.59
2023-02-12T15:15:50.243Z,103176.28
2023-02-12T15:18:26.436Z,103163.97
2023-02-12T15:21:00.103Z,103168.41
2023-02-12T15:23:34.592Z,103167.56
2023-02-12T15:26:04.437Z,103164.97
2023-02-12T15:28:36.228Z,103168.59
2023-02-12T15:31:10.276Z,103165.13
2023-02-12T15:33:42.765Z,103166.06
2023-02-12T15:36:17.005Z,103162.59
2023-02-12T15:38:46.530Z,103168.00
2023-02-12T15:41:27.344Z,103169.75
2023-02-12T15:43:55.363Z,103164.53
2023-02-12T15:46:24.028Z,103170.78
2023-02-12T15:48:55.550Z,103169.06
2023-02-12T15:51:31.255Z,103162.97
2023-02-12T15:54:01.236Z,103161.31
2023-02-12T15:56:29.520Z,103161.38
2023-02-12T15:59:00.039Z,103156.16
2023-02-12T16:01:31.017Z,103155.34
2023-02-12T16:04:02.440Z,103151.03
2023-02-12T16:06:34.167Z,103154.63
2023-02-12T16:09:05.598Z,103151.16
2023-02-12T16:11:35.106Z,103155.72
2023-02-12T16:14:05.428Z,103156.66
2023-02-12T16:16:45.567Z,103151.41
2023-02-12T16:19:22.681Z,103150.69
2023-02-12T16:22:19.592Z,103149.00
2023-02-12T16:24:48.751Z,103156.13
2023-02-12T16:27:20.798Z,103152.78
2023-02-12T16:29:54.969Z,103156.44
2023-02-12T16:32:35.074Z,103159.09
2023-02-12T16:35:08.594Z,103154.00
2023-02-12T16:37:45.986Z,103155.81
2023-02-12T16:40:25.993Z,103158.50
2023-02-12T16:42:59.388Z,103157.72
2023-02-12T16:45:41.469Z,103157.00
2023-02-12T16:48:11.166Z,103159.81
2023-02-12T16:50:49.700Z,103168.78
2023-02-12T16:53:46.863Z,103170.66
2023-02-12T16:56:18.550Z,103162.81
2023-02-12T16:58:48.225Z,103168.19
2023-02-12T17:01:22.263Z,103170.06
2023-02-12T17:03:51.036Z,103170.19
2023-02-12T17:06:28.604Z,103173.88
2023-02-12T17:08:57.578Z,103174.88
2023-02-12T17:11:26.592Z,103178.53
2023-02-12T17:13:56.287Z,103176.03
2023-02-12T17:16:30.917Z,103181.38
2023-02-12T17:18:59.687Z,103179.75
2023-02-12T17:21:30.675Z,103185.13
2023-02-12T17:23:58.392Z,103186.03
2023-02-12T17:26:26.427Z,103193.22
2023-02-12T17:28:56.533Z,103196.88
2023-02-12T17:31:26.630Z,103194.22
2023-02-12T17:33:54.615Z,103205.84
2023-02-12T17:36:24.126Z,103200.66
2023-02-12T17:38:53.723Z,103207.81
2023-02-12T17:41:22.062Z,103207.03
2023-02-12T17:43:49.773Z,103210.72
2023-02-12T17:46:20.225Z,103205.50
2023-02-12T17:48:48.280Z,103208.25
2023-02-12T17:51:16.532Z,103210.13
2023-02-12T17:53:44.826Z,103208.38
2023-02-12T17:56:16.378Z,103216.41
2023-02-12T17:58:44.696Z,103215.63
2023-02-12T18:01:15.364Z,103207.69
2023-02-12T18:03:44.052Z,103208.63
2023-02-12T18:06:14.184Z,103210.50
2023-02-12T18:08:42.565Z,103211.44
2023-02-12T18:11:11.987Z,103211.50
2023-02-12T18:13:42.448Z,103213.34
2023-02-12T18:16:11.605Z,103213.34
2023-02-12T18:18:40.518Z,103210.75
2023-02-12T18:21:09.491Z,103216.19
2023-02-12T18:23:38.070Z,103211.09
2023-02-12T18:26:07.107Z,103223.53
2023-02-12T18:28:35.256Z,103214.78
2023-02-12T18:31:05.689Z,103214.88
2023-02-12T18:33:34.054Z,103211.38
2023-02-12T18:36:03.548Z,103214.03
2023-02-12T18:38:31.810Z,103202.56
2023-02-12T18:41:00.665Z,103206.16
2023-02-12T18:43:29.544Z,103210.59
2023-02-12T18:45:57.181Z,103199.19
2023-02-12T18:48:26.374Z,103202.75
2023-02-12T18:50:55.471Z,103205.41
2023-02-12T18:53:23.369Z,103199.31
2023-02-12T18:55:51.749Z,103205.53
2023-02-12T18:58:19.376Z,103202.97
2023-02-12T19:00:47.046Z,103205.66
2023-02-12T19:03:15.629Z,103202.16
2023-02-12T19:05:44.559Z,103204.88
2023-02-12T19:08:12.675Z,103211.09
2023-02-12T19:10:40.488Z,103199.72
2023-02-12T19:13:08.883Z,103205.91
2023-02-12T19:15:39.515Z,103209.50
2023-02-12T19:18:07.614Z,103212.22
2023-02-12T19:20:35.468Z,103213.16
2023-02-12T19:23:04.451Z,103210.56
2023-02-12T19:25:32.116Z,103207.09
2023-02-12T19:27:59.751Z,103214.19
2023-02-12T19:30:27.387Z,103214.25
2023-02-12T19:32:55.012Z,103215.19
2023-02-12T19:35:24.535Z,103209.94
2023-02-12T19:37:52.191Z,103210.88
2023-02-12T19:40:21.538Z,103213.59
2023-02-12T19:42:49.236Z,103212.72
2023-02-12T19:45:17.052Z,103214.50
2023-02-12T19:47:44.642Z,103211.00
2023-02-12T19:50:12.352Z,103204.84
2023-02-12T19:52:40.140Z,103205.78
2023-02-12T19:55:08.595Z,103199.56
2023-02-12T19:57:38.491Z,103203.22
2023-02-12T20:00:07.541Z,103200.56
2023-02-12T20:02:35.255Z,103198.84
2023-02-12T20:05:03.157Z,103197.13
2023-02-12T20:07:30.781Z,103198.97
2023-02-12T20:09:58.366Z,103203.41
2023-02-12T20:12:26.098Z,103199.03
2023-02-12T20:14:56.456Z,103199.09
2023-02-12T20:17:24.943Z,103200.03
2023-02-12T20:19:52.562Z,103195.63
2023-02-12T20:22:22.185Z,103192.06
2023-02-12T20:24:51.334Z,103202.69
2023-02-12T20:27:22.543Z,103196.53
2023-02-12T20:29:50.570Z,103203.63
2023-02-12T20:32:19.581Z,103198.38
2023-02-12T20:34:51.181Z,103201.03
2023-02-12T20:37:19.198Z,103194.88
2023-02-12T20:39:48.007Z,103189.63
2023-02-12T20:42:15.624Z,103193.16
2023-02-12T20:44:43.275Z,103191.38
2023-02-12T20:47:10.914Z,103196.69
2023-02-12T20:49:39.870Z,103203.78
2023-02-12T20:52:07.921Z,103196.69
2023-02-12T20:54:37.880Z,103202.94
2023-02-12T20:57:08.600Z,103197.69
2023-02-12T20:59:36.563Z,103200.34
2023-02-12T21:02:04.481Z,103201.28
2023-02-12T21:04:32.343Z,103196.91
2023-02-12T21:07:01.511Z,103194.25
2023-02-12T21:09:29.302Z,103200.41
2023-02-12T21:11:58.986Z,103194.34
2023-02-12T21:14:27.690Z,103184.63
2023-02-12T21:16:56.609Z,103188.19
2023-02-12T21:19:26.456Z,103187.41
2023-02-12T21:21:55.316Z,103188.25
2023-02-12T21:24:26.180Z,103190.97
2023-02-12T21:26:55.576Z,103195.34
2023-02-12T21:29:25.967Z,103188.34
2023-02-12T21:31:55.716Z,103189.22
2023-02-12T21:34:24.547Z,103191.88
2023-02-12T21:36:55.078Z,103188.38
2023-02-12T21:39:27.008Z,103195.53
2023-02-12T21:41:56.695Z,103190.22
2023-02-12T21:44:26.618Z,103186.72
2023-02-12T21:46:56.537Z,103199.09
2023-02-12T21:49:27.530Z,103190.34
2023-02-12T21:51:57.839Z,103196.56
2023-02-12T21:54:27.279Z,103192.19
2023-02-12T21:56:55.465Z,103194.84
2023-02-12T21:59:24.619Z,103195.78
2023-02-12T22:01:53.930Z,103193.13
2023-02-12T22:04:21.869Z,103192.25
2023-02-12T22:06:52.468Z,103186.94
2023-02-12T22:09:22.355Z,103192.25
2023-02-12T22:11:52.872Z,103189.69
2023-02-12T22:14:21.757Z,103187.03
2023-02-12T22:16:49.738Z,103189.72
2023-02-12T22:19:17.396Z,103181.75
2023-02-12T22:21:46.016Z,103187.06
2023-02-12T22:24:15.767Z,103186.19
2023-02-12T22:26:45.723Z,103193.22
2023-02-12T22:29:16.583Z,103195.88
2023-02-12T22:31:47.414Z,103189.72
2023-02-12T22:34:18.524Z,103191.47
2023-02-12T22:36:47.005Z,103187.91
2023-02-12T22:39:17.377Z,103183.53
2023-02-12T22:41:45.412Z,103187.06
2023-02-12T22:44:15.496Z,103183.53
2023-02-12T22:46:44.089Z,103178.25
2023-02-12T22:49:12.538Z,103182.69
2023-02-12T22:51:41.594Z,103185.28
2023-02-12T22:54:13.187Z,103181.72
2023-02-12T22:56:41.094Z,103179.25
2023-02-12T22:59:08.933Z,103181.81
2023-02-12T23:01:39.583Z,103182.00
2023-02-12T23:05:21.550Z,103183.84
2023-02-12T23:09:28.650Z,103172.31
2023-02-12T23:12:00.518Z,103165.38
2023-02-12T23:14:28.135Z,103167.16
2023-02-12T23:16:57.117Z,103168.94
2023-02-12T23:19:25.051Z,103173.31
2023-02-12T23:21:53.616Z,103169.75
2023-02-12T23:24:23.515Z,103167.94
2023-02-12T23:26:52.304Z,103166.16
2023-02-12T23:30:09.832Z,103169.59
2023-02-12T23:33:28.859Z,103165.22
2023-02-12T23:37:10.472Z,103152.03
2023-02-12T23:41:17.758Z,103152.97
2023-02-12T23:43:47.525Z,103160.06
2023-02-12T23:46:15.191Z,103157.41
2023-02-12T23:48:44.392Z,103157.41
2023-02-12T23:51:12.652Z,103155.63
2023-02-12T23:53:41.065Z,103152.03
2023-02-12T23:56:08.797Z,103154.69
2023-02-12T23:58:36.550Z,103141.50
